createdAt,value
2018-07-24T00:03:33.717Z,62.22
2018-07-24T00:08:36.786Z,62.01
2018-07-24T00:13:39.842Z,62.17
2018-07-24T00:18:42.970Z,62.67
2018-07-24T00:23:46.134Z,64.00
2018-07-24T00:28:49.235Z,63.69
2018-07-24T00:33:52.310Z,63.31
2018-07-24T00:38:55.353Z,62.67
2018-07-24T00:43:58.353Z,62.98
2018-07-24T00:49:01.362Z,62.95
2018-07-24T00:54:04.625Z,63.31
2018-07-24T00:59:07.684Z,63.07
2018-07-24T01:04:10.697Z,63.72
2018-07-24T01:09:13.718Z,63.99
2018-07-24T01:14:16.726Z,63.83
2018-07-24T01:19:19.790Z,63.41
2018-07-24T01:24:22.849Z,63.73
2018-07-24T01:29:25.853Z,63.51
2018-07-24T01:34:29.026Z,63.22
2018-07-24T01:39:32.161Z,64.29
2018-07-24T01:44:35.209Z,64.55
2018-07-24T01:49:38.279Z,65.34
2018-07-24T01:54:41.324Z,65.43
2018-07-24T01:59:44.360Z,65.31
2018-07-24T02:04:47.451Z,64.29
2018-07-24T02:09:50.516Z,64.63
2018-07-24T02:14:53.607Z,65.30
2018-07-24T02:19:56.718Z,66.49
2018-07-24T02:24:59.867Z,66.66
2018-07-24T02:30:03.030Z,65.09
2018-07-24T02:35:06.137Z,65.70
2018-07-24T02:40:09.214Z,65.68
2018-07-24T02:45:12.315Z,66.40
2018-07-24T02:50:15.439Z,67.30
2018-07-24T02:55:19.093Z,66.29
2018-07-24T03:00:22.195Z,65.93
2018-07-24T03:05:25.234Z,65.74
2018-07-24T03:10:28.644Z,66.28
2018-07-24T03:15:31.714Z,67.52
2018-07-24T03:20:34.778Z,67.61
2018-07-24T03:25:37.802Z,67.52
2018-07-24T03:30:40.867Z,67.72
2018-07-24T03:35:43.957Z,66.98
2018-07-24T03:40:46.978Z,67.51
2018-07-24T03:45:50.048Z,67.79
2018-07-24T03:50:53.109Z,68.92
2018-07-24T03:55:56.191Z,68.41
2018-07-24T04:00:59.215Z,67.79
2018-07-24T04:06:02.270Z,67.82
2018-07-24T04:11:05.852Z,67.14
2018-07-24T04:16:08.885Z,66.69
2018-07-24T04:21:11.975Z,66.82
2018-07-24T04:26:15.134Z,66.92
2018-07-24T04:31:18.167Z,66.40
2018-07-24T04:36:21.265Z,66.02
2018-07-24T04:41:24.309Z,66.26
2018-07-24T04:46:27.352Z,66.10
2018-07-24T04:51:30.429Z,66.08
2018-07-24T04:56:33.477Z,65.96
2018-07-24T05:01:36.441Z,65.54
2018-07-24T05:06:39.470Z,65.44
2018-07-24T05:11:43.246Z,64.37
2018-07-24T05:16:46.276Z,64.41
2018-07-24T05:21:49.273Z,63.11
2018-07-24T05:26:52.297Z,62.51
2018-07-24T05:31:55.348Z,62.11
2018-07-24T05:36:58.378Z,62.65
2018-07-24T05:42:01.389Z,61.79
2018-07-24T05:47:04.782Z,60.86
2018-07-24T05:52:07.762Z,60.22
2018-07-24T05:57:10.803Z,58.33
2018-07-24T06:02:13.852Z,57.77
2018-07-24T06:07:16.905Z,56.37
2018-07-24T06:12:19.954Z,54.74
2018-07-24T06:17:23.034Z,54.36
2018-07-24T06:22:26.131Z,52.50
2018-07-24T06:27:29.165Z,51.81
2018-07-24T06:32:32.218Z,50.16
2018-07-24T06:37:35.294Z,49.56
2018-07-24T06:42:38.380Z,48.86
2018-07-24T06:47:41.438Z,47.49
2018-07-24T06:52:44.766Z,47.17
2018-07-24T06:57:47.823Z,47.21
2018-07-24T07:02:50.844Z,46.42
2018-07-24T07:07:53.924Z,46.29
2018-07-24T07:12:56.994Z,44.97
2018-07-24T07:18:00.123Z,44.96
2018-07-24T07:23:03.242Z,44.55
2018-07-24T07:28:06.592Z,44.03
2018-07-24T07:33:09.609Z,43.16
2018-07-24T07:38:12.609Z,43.02
2018-07-24T07:43:15.749Z,42.90
2018-07-24T07:48:18.853Z,41.69
2018-07-24T07:53:21.879Z,41.57
2018-07-24T07:58:24.894Z,39.93
2018-07-24T08:03:27.964Z,39.41
2018-07-24T08:08:31.052Z,39.99
2018-07-24T08:13:34.143Z,39.95
2018-07-24T08:18:37.184Z,38.73
2018-07-24T08:23:40.189Z,37.40
2018-07-24T08:28:43.213Z,36.55
2018-07-24T08:33:46.274Z,36.42
2018-07-24T08:38:49.403Z,37.45
2018-07-24T08:43:52.453Z,36.40
2018-07-24T08:48:56.552Z,36.47
2018-07-24T08:53:59.968Z,36.67
2018-07-24T08:59:02.714Z,36.46
2018-07-24T09:04:05.851Z,35.56
2018-07-24T09:09:10.521Z,36.42
2018-07-24T09:14:13.600Z,36.56
2018-07-24T09:19:16.749Z,35.99
2018-07-24T09:24:19.790Z,35.21
2018-07-24T09:29:22.822Z,35.21
2018-07-24T09:34:25.879Z,34.81
2018-07-24T09:39:28.997Z,34.55
2018-07-24T09:44:31.998Z,33.82
2018-07-24T09:49:35.111Z,35.16
2018-07-24T09:54:38.165Z,34.79
2018-07-24T09:59:41.258Z,35.29
2018-07-24T10:04:44.293Z,35.06
2018-07-24T10:09:47.330Z,34.30
2018-07-24T10:14:50.325Z,34.12
2018-07-24T10:19:53.378Z,33.91
2018-07-24T10:24:56.418Z,34.80
2018-07-24T10:29:59.463Z,33.93
2018-07-24T10:35:02.537Z,35.44
2018-07-24T10:40:05.666Z,33.85
2018-07-24T10:45:08.666Z,34.85
2018-07-24T10:50:11.715Z,34.43
2018-07-24T10:55:14.909Z,34.12
2018-07-24T11:00:18.107Z,33.67
2018-07-24T11:05:21.212Z,33.23
2018-07-24T11:10:24.222Z,33.71
2018-07-24T11:15:27.291Z,33.20
2018-07-24T11:20:30.454Z,31.99
2018-07-24T11:25:33.497Z,32.58
2018-07-24T11:30:36.577Z,32.44
2018-07-24T11:35:39.631Z,31.36
2018-07-24T11:40:42.687Z,32.15
2018-07-24T11:45:45.726Z,32.60
2018-07-24T11:50:48.802Z,31.89
2018-07-24T11:55:51.883Z,32.64
2018-07-24T12:00:54.881Z,31.49
2018-07-24T12:05:57.919Z,32.10
2018-07-24T12:11:00.940Z,31.26
2018-07-24T12:16:04.062Z,31.70
2018-07-24T12:21:07.251Z,31.66
2018-07-24T12:26:10.305Z,30.98
2018-07-24T12:31:13.301Z,31.23
2018-07-24T12:36:16.479Z,31.12
2018-07-24T12:41:19.502Z,31.07
2018-07-24T12:46:22.597Z,30.72
2018-07-24T12:51:25.638Z,30.38
2018-07-24T12:56:28.719Z,29.99
2018-07-24T13:01:31.746Z,30.13
2018-07-24T13:06:34.791Z,29.80
2018-07-24T13:11:37.914Z,29.67
2018-07-24T13:16:41.009Z,30.29
2018-07-24T13:21:44.100Z,31.23
2018-07-24T13:26:47.191Z,29.94
2018-07-24T13:31:50.278Z,28.98
2018-07-24T13:36:53.275Z,29.32
2018-07-24T13:41:56.346Z,29.65
2018-07-24T13:46:59.439Z,30.44
2018-07-24T13:52:02.504Z,29.82
2018-07-24T13:57:05.478Z,29.24
2018-07-24T14:02:08.563Z,29.92
2018-07-24T14:07:11.778Z,28.76
2018-07-24T14:12:14.889Z,28.80
2018-07-24T14:17:17.935Z,27.99
2018-07-24T14:22:22.987Z,27.19
2018-07-24T14:27:26.126Z,26.69
2018-07-24T14:32:29.370Z,27.34
2018-07-24T14:37:32.559Z,27.82
2018-07-24T14:42:35.891Z,26.86
2018-07-24T14:47:40.187Z,26.53
2018-07-24T14:52:44.930Z,26.19
2018-07-24T14:57:48.924Z,26.79
2018-07-24T15:02:52.038Z,26.42
2018-07-24T15:07:56.036Z,27.11
2018-07-24T15:13:02.579Z,27.94
2018-07-24T15:18:05.960Z,27.14
2018-07-24T15:23:08.999Z,27.28
2018-07-24T15:28:12.143Z,27.22
2018-07-24T15:33:15.541Z,26.32
2018-07-24T15:38:18.675Z,27.18
2018-07-24T15:43:21.730Z,26.65
2018-07-24T15:48:24.763Z,26.21
2018-07-24T15:53:28.357Z,26.86
2018-07-24T15:58:37.379Z,26.93
2018-07-24T16:03:40.438Z,26.57
2018-07-24T16:08:43.463Z,26.75
2018-07-24T16:13:46.583Z,26.27
2018-07-24T16:18:49.736Z,26.25
2018-07-24T16:23:52.826Z,25.69
2018-07-24T16:28:55.970Z,25.79
2018-07-24T16:33:58.994Z,26.78
2018-07-24T16:39:02.090Z,26.41
2018-07-24T16:44:05.218Z,25.82
2018-07-24T16:49:08.242Z,25.83
2018-07-24T16:54:11.285Z,25.45
2018-07-24T16:59:14.525Z,26.50
2018-07-24T17:04:17.590Z,26.59
2018-07-24T17:09:21.410Z,26.55
2018-07-24T17:14:24.433Z,27.47
2018-07-24T17:19:27.494Z,27.56
2018-07-24T17:24:30.534Z,27.22
2018-07-24T17:29:33.926Z,27.27
2018-07-24T17:34:36.925Z,28.15
2018-07-24T17:39:39.942Z,27.77
2018-07-24T17:44:44.152Z,28.28
2018-07-24T17:49:47.220Z,29.24
2018-07-24T17:54:50.265Z,28.99
2018-07-24T17:59:53.425Z,28.64
2018-07-24T18:04:56.503Z,28.56
2018-07-24T18:09:59.694Z,28.91
2018-07-24T18:15:02.951Z,29.04
2018-07-24T18:20:06.046Z,28.98
2018-07-24T18:25:09.727Z,29.01
2018-07-24T18:30:12.883Z,29.39
2018-07-24T18:35:15.974Z,30.14
2018-07-24T18:45:28.807Z,31.09
2018-07-24T18:50:31.940Z,31.12
2018-07-24T18:55:34.968Z,32.17
2018-07-24T19:00:37.977Z,32.14
2018-07-24T19:05:41.131Z,33.58
2018-07-24T19:10:44.163Z,34.04
2018-07-24T19:15:47.238Z,34.70
2018-07-24T19:20:50.314Z,35.23
2018-07-24T19:25:53.365Z,35.46
2018-07-24T19:30:56.532Z,36.00
2018-07-24T19:35:59.890Z,36.49
2018-07-24T19:41:05.620Z,37.44
2018-07-24T19:46:08.713Z,38.09
2018-07-24T19:51:12.911Z,39.39
2018-07-24T19:56:16.003Z,40.75
2018-07-24T20:01:19.090Z,40.85
2018-07-24T20:06:22.126Z,41.00
2018-07-24T20:11:25.209Z,41.13
2018-07-24T20:16:28.203Z,42.13
2018-07-24T20:21:31.363Z,42.06
2018-07-24T20:26:34.446Z,41.38
2018-07-24T20:31:37.844Z,41.25
2018-07-24T20:36:40.907Z,42.83
2018-07-24T20:41:44.102Z,42.34
2018-07-24T20:46:47.170Z,42.38
2018-07-24T20:51:50.234Z,43.86
2018-07-24T20:56:53.253Z,44.50
2018-07-24T21:01:56.284Z,44.35
2018-07-24T21:06:59.331Z,45.34
2018-07-24T21:12:02.345Z,44.71
2018-07-24T21:17:05.554Z,44.82
2018-07-24T21:22:08.616Z,45.56
2018-07-24T21:27:11.654Z,45.79
2018-07-24T21:32:14.725Z,46.89
2018-07-24T21:37:17.786Z,47.91
2018-07-24T21:42:20.819Z,49.11
2018-07-24T21:47:23.834Z,49.64
2018-07-24T21:52:26.944Z,49.61
2018-07-24T21:57:30.039Z,50.46
2018-07-24T22:02:33.110Z,51.56
2018-07-24T22:07:36.411Z,51.40
2018-07-24T22:12:39.469Z,52.15
2018-07-24T22:17:43.180Z,53.49
2018-07-24T22:22:46.446Z,52.73
2018-07-24T22:27:49.519Z,52.49
2018-07-24T22:32:52.537Z,51.60
2018-07-24T22:37:55.629Z,51.44
2018-07-24T22:42:58.645Z,50.67
2018-07-24T22:48:01.729Z,51.30
2018-07-24T22:53:04.861Z,50.60
2018-07-24T22:58:07.865Z,51.26
2018-07-24T23:03:11.498Z,52.10
2018-07-24T23:08:14.525Z,52.41
2018-07-24T23:13:17.593Z,53.05
2018-07-24T23:18:20.638Z,53.13
2018-07-24T23:23:23.673Z,53.79
2018-07-24T23:28:26.763Z,54.25
2018-07-24T23:33:29.880Z,54.96
2018-07-24T23:38:33.022Z,54.87
2018-07-24T23:43:36.022Z,55.18
2018-07-24T23:48:39.050Z,55.09
2018-07-24T23:53:42.047Z,55.17
2018-07-24T23:58:45.062Z,55.25
